Time;durP1;ratioP1;P1;durP2;ratioP2;P2;SDS_P1;SDS_P2;PMS_P1;PMS_P2;Temp;Humidity;BMP_temperature;BMP_pressure;BME280_temperature;BME280_humidity;BME280_pressure;Samples;Min_cycle;Max_cycle;Signal;HPM_P1;HPM_P2
2021/05/19 00:01:04;;;;;;;6.62;5.90;;;;;;;9.53;77.50;97639.59;1681506;85;21112;-69
2021/05/19 00:03:30;;;;;;;8.03;6.40;;;;;;;11.98;77.78;98007.68;1681048;85;21166;-69
2021/05/19 00:05:56;;;;;;;7.00;6.10;;;;;;;11.95;77.85;98007.93;1680232;85;21079;-69
2021/05/19 00:08:22;;;;;;;6.97;6.30;;;;;;;11.95;77.80;98003.84;1681192;85;21544;-69
2021/05/19 00:10:48;;;;;;;6.65;6.05;;;;;;;11.96;77.90;98004.61;1680563;85;21673;-69
2021/05/19 00:13:13;;;;;;;8.48;6.83;;;;;;;11.99;77.92;98007.84;1679993;85;21056;-70
2021/05/19 00:15:39;;;;;;;8.10;6.90;;;;;;;11.97;77.96;98010.21;1681548;85;21190;-69
2021/05/19 00:18:05;;;;;;;8.48;6.92;;;;;;;11.93;78.08;98009.54;1681557;85;21641;-70
2021/05/19 00:20:31;;;;;;;7.80;7.00;;;;;;;11.91;78.15;98007.23;1681038;85;21063;-69
2021/05/19 00:22:57;;;;;;;9.38;7.20;;;;;;;11.91;78.24;97999.66;1663428;85;21096;-68
2021/05/19 00:25:22;;;;;;;7.17;6.47;;;;;;;11.88;78.20;98010.80;1648744;86;21052;-69
2021/05/19 00:27:48;;;;;;;7.55;6.83;;;;;;;11.87;78.16;98014.72;1648088;87;21035;-69
2021/05/19 00:30:19;;;;;;;7.65;6.85;;;;;;;11.87;78.08;98016.08;1650288;85;21687;-69
2021/05/19 00:32:43;;;;;;;7.83;6.97;;;;;;;11.86;78.00;98002.88;1649390;85;21063;-69
2021/05/19 00:35:13;;;;;;;8.60;7.75;;;;;;;11.84;77.95;98007.38;1649685;85;21091;-69
2021/05/19 00:37:39;;;;;;;8.33;7.53;;;;;;;11.83;78.07;98011.86;1649050;87;21523;-70
2021/05/19 00:40:07;;;;;;;8.85;7.50;;;;;;;11.82;78.13;98006.26;1648595;87;21653;-70
2021/05/19 00:42:33;;;;;;;8.55;7.78;;;;;;;11.82;78.33;98002.94;1649343;85;21048;-70
2021/05/19 00:45:05;;;;;;;9.05;8.20;;;;;;;9.21;78.13;97611.70;1648728;85;21095;-70
2021/05/19 00:47:33;;;;;;;9.05;8.20;;;;;;;11.88;78.35;98015.48;1630231;85;22139;-70
2021/05/19 00:49:59;;;;;;;9.50;8.48;;;;;;;11.85;78.40;98012.22;1661764;84;21116;-70
2021/05/19 00:52:24;;;;;;;10.35;9.25;;;;;;;11.82;78.60;98010.34;1668281;86;21084;-70
2021/05/19 00:54:50;;;;;;;10.63;9.50;;;;;;;11.77;78.76;98016.44;1668231;86;21111;-70
2021/05/19 00:57:16;;;;;;;10.68;9.58;;;;;;;11.74;78.89;98013.20;1668542;86;21007;-70
2021/05/19 00:59:42;;;;;;;10.55;9.53;;;;;;;11.73;79.01;98008.17;1669403;84;21631;-70
2021/05/19 01:02:07;;;;;;;12.03;9.70;;;;;;;11.74;79.10;98012.44;1668564;86;21084;-70
2021/05/19 01:04:33;;;;;;;11.55;9.83;;;;;;;11.76;79.11;98019.59;1669128;84;21099;-72
2021/05/19 01:07:03;;;;;;;11.30;10.03;;;;;;;11.74;79.12;98013.20;1668682;86;21083;-72
2021/05/19 01:09:36;;;;;;;10.30;9.15;;;;;;;11.73;79.22;98013.04;1645370;86;21223;-70
2021/05/19 01:12:11;;;;;;;10.05;9.15;;;;;;;11.71;79.16;98011.33;1669707;84;21061;-70
2021/05/19 01:14:38;;;;;;;10.18;9.15;;;;;;;11.70;78.99;98011.73;1644893;86;21293;-70
2021/05/19 01:17:04;;;;;;;9.38;8.55;;;;;;;11.69;78.85;98009.61;1672227;84;21154;-70
2021/05/19 01:19:30;;;;;;;9.45;8.55;;;;;;;11.72;78.68;98014.21;1668415;86;21391;-70
2021/05/19 01:21:56;;;;;;;10.20;8.50;;;;;;;11.75;78.54;98025.60;1668411;86;21082;-69
2021/05/19 01:24:22;;;;;;;10.10;9.20;;;;;;;11.77;78.57;98021.88;1668427;86;21079;-70
2021/05/19 01:26:48;;;;;;;11.48;10.28;;;;;;;11.79;78.59;98025.55;1668463;86;21083;-71
2021/05/19 01:29:14;;;;;;;12.53;11.30;;;;;;;11.76;78.80;98029.88;1668565;86;21131;-70
2021/05/19 01:31:40;;;;;;;13.05;11.70;;;;;;;11.72;78.95;98025.09;1668103;86;21722;-70
2021/05/19 01:34:06;;;;;;;13.38;11.97;;;;;;;11.73;79.12;98030.72;1645272;86;21411;-70
2021/05/19 01:36:33;;;;;;;12.68;11.38;;;;;;;11.72;79.24;98030.53;1668802;86;21571;-70
2021/05/19 01:38:58;;;;;;;12.60;11.25;;;;;;;11.74;79.40;98029.52;1669089;86;21063;-70
2021/05/19 01:41:24;;;;;;;13.68;12.18;;;;;;;11.77;79.35;98029.28;1667817;86;21043;-70
2021/05/19 01:43:50;;;;;;;13.80;12.40;;;;;;;11.73;79.44;98024.49;1667987;86;21061;-70
2021/05/19 01:46:16;;;;;;;13.03;11.73;;;;;;;11.68;79.54;98024.41;1668493;86;21405;-70
2021/05/19 01:48:42;;;;;;;15.65;11.90;;;;;;;11.64;79.65;98026.42;1670787;84;21067;-72
2021/05/19 01:51:07;;;;;;;14.50;12.73;;;;;;;11.60;79.76;98024.39;1661044;86;21094;-70
2021/05/19 01:53:33;;;;;;;13.35;11.95;;;;;;;11.59;79.83;98022.83;1666186;86;21075;-70
2021/05/19 01:56:00;;;;;;;14.35;11.75;;;;;;;11.57;79.89;98032.03;1665266;86;21604;-70
2021/05/19 01:58:26;;;;;;;14.75;12.03;;;;;;;11.52;79.93;98032.52;1667028;84;21019;-70
2021/05/19 02:00:52;;;;;;;13.80;12.30;;;;;;;11.47;80.02;98025.61;1645009;86;21106;-69
2021/05/19 02:03:18;;;;;;;14.65;12.37;;;;;;;11.46;80.10;98026.80;1666072;86;21042;-70
2021/05/19 02:05:44;;;;;;;14.47;12.98;;;;;;;11.43;80.16;98025.50;1665842;85;21135;-71
2021/05/19 02:08:10;;;;;;;14.75;13.18;;;;;;;11.40;80.29;98032.53;1678280;84;21043;-70
2021/05/19 02:10:36;;;;;;;15.23;13.45;;;;;;;11.19;80.36;98022.10;1695821;84;21059;-70
2021/05/19 02:13:04;;;;;;;16.00;13.40;;;;;;;11.38;80.44;98038.24;1696020;84;21541;-71
2021/05/19 02:15:29;;;;;;;;;;;;;;;11.36;80.49;98039.24;1698404;84;21362;-70
2021/05/19 02:17:55;;;;;;;14.83;13.05;;;;;;;11.36;80.46;98035.93;1687384;85;20215;-70
2021/05/19 02:20:22;;;;;;;15.15;13.55;;;;;;;11.36;80.33;98040.61;1664011;86;21126;-70
2021/05/19 02:22:48;;;;;;;16.10;14.40;;;;;;;11.27;80.42;98037.09;1691609;85;21059;-70
2021/05/19 02:28:00;;;;;;;14.87;13.38;;;;;;;11.23;80.70;98042.56;1617563;88;21085;-70
2021/05/19 02:30:26;;;;;;;15.63;13.83;;;;;;;11.24;80.75;98040.61;1614004;88;21196;-69
2021/05/19 02:32:52;;;;;;;15.23;13.62;;;;;;;11.28;80.78;98041.33;1632257;87;21394;-70
2021/05/19 02:35:18;;;;;;;16.50;14.70;;;;;;;11.34;80.74;98035.58;1628605;86;21568;-69
2021/05/19 02:37:44;;;;;;;17.55;15.23;;;;;;;11.34;80.73;98032.85;1649067;86;21091;-69
2021/05/19 02:40:12;;;;;;;18.60;15.95;;;;;;;11.33;80.75;98034.05;1651685;85;21608;-70
2021/05/19 02:42:38;;;;;;;20.20;16.70;;;;;;;11.26;80.81;98027.38;1627115;86;21568;-70
2021/05/19 02:45:05;;;;;;;18.62;16.62;;;;;;;11.21;81.00;98035.45;1608395;86;21158;-69
2021/05/19 02:47:31;;;;;;;19.62;17.42;;;;;;;11.24;81.10;98040.05;1647960;86;21612;-69
2021/05/19 02:49:57;;;;;;;19.67;16.97;;;;;;;11.35;81.09;98046.64;1650422;86;21289;-69
2021/05/19 02:52:22;;;;;;;20.55;17.70;;;;;;;11.44;80.98;98044.72;1648834;86;21510;-70
2021/05/19 02:54:48;;;;;;;19.15;17.05;;;;;;;11.51;80.92;98058.16;1652096;86;21102;-69
2021/05/19 02:57:14;;;;;;;19.65;17.55;;;;;;;11.58;80.85;98052.58;1650567;86;21131;-70
2021/05/19 02:59:40;;;;;;;21.68;18.52;;;;;;;11.64;80.73;98048.78;1646576;86;21055;-70
2021/05/19 03:02:06;;;;;;;22.13;19.55;;;;;;;11.65;80.57;98051.09;1648405;86;21110;-70
2021/05/19 03:04:31;;;;;;;21.05;18.85;;;;;;;11.64;80.65;98053.62;1649905;86;21071;-70
2021/05/19 03:06:57;;;;;;;20.97;18.77;;;;;;;11.69;80.56;98049.66;1644057;86;21146;-69
2021/05/19 03:09:23;;;;;;;20.60;18.42;;;;;;;11.73;80.42;98054.41;1649256;86;21087;-69
2021/05/19 03:11:48;;;;;;;20.72;18.50;;;;;;;11.72;80.30;98044.73;1651980;86;21103;-70
2021/05/19 03:14:14;;;;;;;21.62;18.85;;;;;;;11.70;80.26;98056.05;1651078;85;21357;-69
2021/05/19 03:16:40;;;;;;;20.77;18.55;;;;;;;11.70;80.17;98059.33;1674879;85;21615;-70
2021/05/19 03:19:06;;;;;;;20.43;18.10;;;;;;;11.70;80.12;98057.41;1674812;85;21036;-69
2021/05/19 03:21:32;;;;;;;19.98;17.90;;;;;;;11.68;80.02;98059.77;1678373;85;21651;-69
2021/05/19 03:23:58;;;;;;;18.95;16.80;;;;;;;11.69;80.02;98062.65;1672706;85;22287;-70
2021/05/19 03:26:23;;;;;;;18.92;16.93;;;;;;;11.73;79.99;98053.84;1674184;84;21203;-70
2021/05/19 03:28:49;;;;;;;17.87;15.98;;;;;;;11.57;79.75;98052.42;1677171;85;21203;-69
2021/05/19 03:34:01;;;;;;;18.30;16.50;;;;;;;11.76;79.58;98064.48;1674940;85;21075;-69
2021/05/19 03:36:27;;;;;;;18.42;16.62;;;;;;;11.82;79.55;98076.98;1645824;85;21096;-69
2021/05/19 03:38:52;;;;;;;18.67;16.17;;;;;;;11.90;79.38;98078.41;1703079;84;21083;-69
2021/05/19 03:41:18;;;;;;;18.37;15.55;;;;;;;11.96;79.22;98080.20;1703026;84;21032;-69
2021/05/19 03:43:44;;;;;;;18.02;16.15;;;;;;;12.04;78.93;98093.66;1702750;84;21129;-70
2021/05/19 03:46:10;;;;;;;17.87;16.07;;;;;;;12.04;78.88;98090.34;1703063;84;21123;-70
2021/05/19 03:48:36;;;;;;;17.92;16.23;;;;;;;12.05;78.70;98087.78;1703065;84;21120;-69
2021/05/19 03:51:01;;;;;;;17.45;15.75;;;;;;;12.03;78.62;98097.55;1702534;83;21033;-69
2021/05/19 03:53:27;;;;;;;17.73;15.83;;;;;;;12.01;78.62;98091.19;1702561;84;21079;-70
2021/05/19 03:55:53;;;;;;;18.87;16.95;;;;;;;12.03;78.53;98103.78;1703495;84;21008;-69
2021/05/19 03:58:19;;;;;;;15.90;14.33;;;;;;;12.07;78.51;98109.14;1703349;84;21584;-70
2021/05/19 04:00:45;;;;;;;16.90;15.10;;;;;;;12.10;78.39;98113.14;1703716;84;21402;-69
2021/05/19 04:03:11;;;;;;;16.20;14.60;;;;;;;12.08;78.17;98110.67;1702976;84;21073;-70
2021/05/19 04:05:38;;;;;;;16.23;14.63;;;;;;;12.09;78.17;98119.78;1703129;84;21121;-69
2021/05/19 04:08:04;;;;;;;15.87;14.30;;;;;;;12.16;77.96;98127.02;1703241;84;21148;-70
2021/05/19 04:10:30;;;;;;;15.43;13.60;;;;;;;12.17;77.68;98124.48;1703306;84;21218;-69
2021/05/19 04:12:56;;;;;;;15.48;12.90;;;;;;;12.18;77.47;98124.65;1703203;84;21742;-70
2021/05/19 04:15:23;;;;;;;14.70;12.98;;;;;;;12.17;76.93;98127.20;1717216;83;21083;-69
2021/05/19 04:17:49;;;;;;;14.70;13.08;;;;;;;12.13;76.87;98127.27;1724011;83;21299;-70
2021/05/19 04:20:15;;;;;;;14.55;13.00;;;;;;;12.14;76.79;98132.90;1725377;83;21561;-70
2021/05/19 04:22:41;;;;;;;14.38;12.98;;;;;;;12.13;76.63;98129.98;1725937;83;21099;-70
2021/05/19 04:25:08;;;;;;;14.78;13.10;;;;;;;12.13;76.54;98138.75;1715492;82;21055;-70
2021/05/19 04:27:34;;;;;;;15.43;13.70;;;;;;;12.18;76.48;98144.47;1697300;84;21679;-71
2021/05/19 04:29:59;;;;;;;14.60;12.98;;;;;;;12.24;76.47;98141.25;1698213;83;21051;-70
2021/05/19 04:32:25;;;;;;;14.53;13.13;;;;;;;12.29;76.39;98144.23;1697902;83;21613;-70
2021/05/19 04:34:51;;;;;;;15.35;13.72;;;;;;;12.41;76.26;98147.69;1697172;84;21593;-70
2021/05/19 04:37:17;;;;;;;15.10;13.18;;;;;;;12.48;75.87;98143.27;1709886;83;21104;-69
2021/05/19 04:39:43;;;;;;;14.33;12.78;;;;;;;12.55;75.78;98152.05;1726014;83;21067;-69
2021/05/19 04:42:09;;;;;;;13.35;12.05;;;;;;;12.59;75.39;98145.91;1707378;82;21158;-69
2021/05/19 04:44:35;;;;;;;14.13;12.73;;;;;;;12.65;75.28;98147.53;1724471;83;21055;-69
2021/05/19 04:47:00;;;;;;;14.98;12.58;;;;;;;12.75;75.12;98146.53;1702540;82;21055;-70
2021/05/19 04:49:26;;;;;;;13.30;11.95;;;;;;;12.87;74.83;98140.98;1697539;83;21076;-70
2021/05/19 04:51:52;;;;;;;12.90;11.57;;;;;;;12.97;74.34;98144.66;1707580;83;21047;-70
2021/05/19 04:54:18;;;;;;;13.38;11.93;;;;;;;13.04;74.29;98143.90;1725741;83;21089;-69
2021/05/19 04:56:44;;;;;;;14.47;11.50;;;;;;;13.13;73.86;98150.70;1726081;83;21047;-70
2021/05/19 04:59:10;;;;;;;12.80;11.50;;;;;;;13.18;73.59;98151.56;1726183;83;21107;-69
2021/05/19 05:01:36;;;;;;;13.15;11.78;;;;;;;13.24;73.52;98155.30;1709448;82;21052;-69
2021/05/19 05:04:02;;;;;;;12.68;11.38;;;;;;;13.33;73.36;98156.23;1711277;83;21083;-69
2021/05/19 05:06:27;;;;;;;12.78;11.53;;;;;;;13.42;73.17;98154.28;1726130;82;21044;-69
2021/05/19 05:08:53;;;;;;;12.85;11.45;;;;;;;13.46;72.78;98155.55;1722441;83;21115;-69
2021/05/19 05:11:19;;;;;;;14.40;11.45;;;;;;;13.44;72.68;98158.69;1714132;83;21118;-70
2021/05/19 05:13:45;;;;;;;13.58;12.18;;;;;;;13.51;72.82;98157.16;1705030;83;21064;-70
2021/05/19 05:16:12;;;;;;;13.40;11.63;;;;;;;13.59;72.51;98158.34;1697093;84;21627;-69
2021/05/19 05:18:39;;;;;;;12.88;11.57;;;;;;;13.58;72.11;98162.25;1717151;83;21660;-70
2021/05/19 05:21:05;;;;;;;13.08;11.78;;;;;;;13.53;72.09;98156.13;1697687;83;21544;-69
2021/05/19 05:23:31;;;;;;;12.45;11.25;;;;;;;13.51;72.24;98163.97;1697405;83;21182;-69
2021/05/19 05:25:58;;;;;;;12.00;10.82;;;;;;;13.61;72.10;98168.20;1697202;84;21051;-69
2021/05/19 05:28:24;;;;;;;13.48;12.07;;;;;;;13.70;71.80;98160.19;1697319;83;21156;-69
2021/05/19 05:30:49;;;;;;;13.05;11.73;;;;;;;13.76;71.83;98162.55;1703557;83;21064;-69
2021/05/19 05:33:15;;;;;;;13.48;12.07;;;;;;;13.86;71.38;98160.12;1696908;84;21209;-69
2021/05/19 05:35:41;;;;;;;13.38;11.83;;;;;;;13.94;71.18;98166.13;1669357;84;21079;-69
2021/05/19 05:38:07;;;;;;;12.80;11.50;;;;;;;14.13;71.05;98164.44;1710948;83;21107;-70
2021/05/19 05:40:33;;;;;;;12.75;11.45;;;;;;;14.55;70.51;98168.53;1714997;83;21599;-70
2021/05/19 05:42:59;;;;;;;13.93;11.38;;;;;;;14.81;69.60;98165.17;1697352;83;21091;-69
2021/05/19 05:45:26;;;;;;;12.58;11.28;;;;;;;14.92;69.25;98164.84;1710743;83;21149;-70
2021/05/19 05:47:51;;;;;;;12.68;11.38;;;;;;;14.99;69.06;98163.27;1705124;83;21103;-69
2021/05/19 05:50:17;;;;;;;12.58;11.03;;;;;;;15.14;68.45;98173.91;1696230;84;21027;-69
2021/05/19 05:52:43;;;;;;;14.63;12.23;;;;;;;15.05;68.50;98163.63;1717241;83;21079;-70
2021/05/19 05:55:10;;;;;;;15.03;12.93;;;;;;;15.01;68.30;98167.70;1723351;83;21067;-69
2021/05/19 05:57:35;;;;;;;14.75;13.30;;;;;;;14.84;68.62;98175.23;1696719;84;21620;-70
2021/05/19 06:00:02;;;;;;;14.53;13.03;;;;;;;14.43;69.54;98173.52;1696054;84;21051;-69
2021/05/19 06:02:28;;;;;;;14.27;12.87;;;;;;;14.43;69.54;98173.52;1696293;84;21016;-69
2021/05/19 06:04:53;;;;;;;15.35;13.75;;;;;;;13.62;69.56;98049.11;1696385;84;21611;-69
2021/05/19 06:07:19;;;;;;;14.75;13.25;;;;;;;14.58;69.45;98171.75;1696297;84;21667;-69
2021/05/19 06:09:51;;;;;;;15.35;13.75;;;;;;;14.76;69.29;98180.75;1696254;84;21052;-69
2021/05/19 06:12:13;;;;;;;16.25;14.63;;;;;;;14.88;68.90;98185.47;1695326;84;21572;-69
2021/05/19 06:14:38;;;;;;;15.78;13.83;;;;;;;14.86;68.64;98179.06;1696846;84;21381;-69
2021/05/19 06:17:04;;;;;;;15.28;13.68;;;;;;;14.89;68.63;98181.52;1696316;84;21039;-69
2021/05/19 06:19:30;;;;;;;15.28;13.70;;;;;;;14.99;68.38;98172.83;1695875;84;21738;-69
2021/05/19 06:21:56;;;;;;;15.00;12.98;;;;;;;15.09;68.06;98172.49;1695977;83;21306;-69
2021/05/19 06:24:21;;;;;;;14.83;13.08;;;;;;;15.16;67.77;98172.09;1695670;84;21130;-69
2021/05/19 06:26:47;;;;;;;14.70;13.18;;;;;;;15.25;67.36;98177.64;1695705;84;21541;-69
2021/05/19 06:29:14;;;;;;;14.18;12.75;;;;;;;15.39;67.12;98175.06;1696294;84;21695;-70
2021/05/19 06:31:40;;;;;;;14.50;13.08;;;;;;;15.61;67.00;98174.50;1697337;84;21067;-70
2021/05/19 06:34:06;;;;;;;14.40;13.00;;;;;;;15.78;66.22;98181.95;1689237;83;21787;-70
2021/05/19 06:36:32;;;;;;;14.70;12.85;;;;;;;15.75;66.13;98192.42;1685249;85;21072;-70
2021/05/19 06:38:58;;;;;;;14.90;13.40;;;;;;;15.65;66.13;98189.41;1713461;83;21072;-70
2021/05/19 06:41:23;;;;;;;15.13;13.68;;;;;;;15.60;66.21;98185.88;1713730;83;21057;-70
2021/05/19 06:43:49;;;;;;;15.32;13.83;;;;;;;15.58;66.49;98186.91;1713539;83;21100;-70
2021/05/19 06:46:15;;;;;;;14.15;12.78;;;;;;;15.60;66.58;98183.89;1714075;83;21318;-70
2021/05/19 06:48:41;;;;;;;14.23;12.73;;;;;;;15.71;66.17;98184.34;1713783;83;21671;-70
2021/05/19 06:51:06;;;;;;;13.43;12.13;;;;;;;15.84;65.91;98182.91;1713978;83;21040;-70
2021/05/19 06:53:32;;;;;;;13.25;11.95;;;;;;;15.95;65.96;98179.79;1713792;83;21135;-70
2021/05/19 06:55:59;;;;;;;13.53;12.13;;;;;;;16.25;65.41;98181.66;1713773;83;21479;-70
2021/05/19 06:58:25;;;;;;;12.43;11.12;;;;;;;16.35;64.70;98180.50;1713940;83;21648;-70
2021/05/19 07:00:53;;;;;;;12.13;10.93;;;;;;;16.44;63.88;98170.95;1713781;83;21049;-69
2021/05/19 07:03:18;;;;;;;12.20;11.00;;;;;;;16.36;63.96;98177.30;1714018;83;21096;-69
2021/05/19 07:05:44;;;;;;;11.60;10.40;;;;;;;16.49;63.97;98172.36;1713161;83;21104;-70
2021/05/19 07:08:10;;;;;;;12.05;10.82;;;;;;;16.68;63.63;98186.30;1713865;83;21080;-70
2021/05/19 07:10:36;;;;;;;12.43;10.68;;;;;;;16.79;63.02;98185.30;1713805;83;21037;-70
2021/05/19 07:13:03;;;;;;;11.68;10.30;;;;;;;16.84;62.78;98175.73;1713794;83;21183;-70
2021/05/19 07:15:32;;;;;;;12.82;11.53;;;;;;;16.68;62.50;98185.54;1714027;83;21076;-70
2021/05/19 07:17:56;;;;;;;12.15;11.05;;;;;;;16.50;62.76;98192.45;1713291;83;21700;-70
2021/05/19 07:20:22;;;;;;;11.78;10.58;;;;;;;16.49;62.93;98195.04;1713914;83;21032;-70
2021/05/19 07:22:48;;;;;;;11.55;10.45;;;;;;;16.76;62.41;98193.03;1713623;83;21482;-70
2021/05/19 07:25:14;;;;;;;12.95;11.05;;;;;;;16.76;62.41;98193.03;1713946;83;21553;-70
2021/05/19 07:27:39;;;;;;;12.98;11.78;;;;;;;16.92;62.45;98193.43;1713889;83;21065;-71
2021/05/19 07:32:53;;;;;;;12.55;11.25;;;;;;;17.28;61.36;98196.11;1731201;83;21038;-70
2021/05/19 07:35:19;;;;;;;12.13;10.93;;;;;;;17.31;60.77;98184.22;1720063;83;21117;-69
2021/05/19 07:37:46;;;;;;;11.55;10.35;;;;;;;17.24;61.66;98188.63;1731091;82;20990;-69
2021/05/19 07:40:13;;;;;;;10.45;9.43;;;;;;;17.39;60.70;98190.19;1720162;83;21190;-70
2021/05/19 07:42:39;;;;;;;11.35;9.40;;;;;;;17.47;60.32;98186.69;1697758;83;21557;-70
2021/05/19 07:45:06;;;;;;;11.15;9.55;;;;;;;17.44;59.49;98192.34;1720016;83;21091;-70
2021/05/19 07:47:32;;;;;;;;;;;;;;;17.26;59.71;98190.31;1722673;83;21640;-69
2021/05/19 07:49:57;;;;;;;11.50;10.40;;;;;;;17.33;60.17;98186.52;1720228;83;20283;-69
2021/05/19 07:52:23;;;;;;;10.90;9.60;;;;;;;17.44;60.16;98196.45;1720098;83;21051;-70
2021/05/19 07:54:49;;;;;;;10.38;9.43;;;;;;;17.68;59.40;98193.88;1720183;83;21040;-69
2021/05/19 07:57:23;;;;;;;10.25;9.15;;;;;;;17.02;58.99;98082.53;1720139;83;21115;-70
2021/05/19 07:59:49;;;;;;;9.83;8.93;;;;;;;17.92;59.37;98196.20;1719654;83;21198;-70
2021/05/19 08:02:16;;;;;;;11.48;9.90;;;;;;;18.08;58.70;98199.22;1719829;83;21206;-70
2021/05/19 08:04:41;;;;;;;10.35;9.28;;;;;;;18.00;58.45;98205.48;1720075;83;21743;-70
2021/05/19 08:07:07;;;;;;;10.58;9.58;;;;;;;18.06;58.20;98200.89;1719799;83;21086;-70
2021/05/19 08:09:33;;;;;;;10.35;9.15;;;;;;;18.25;58.13;98201.05;1720170;83;21572;-70
2021/05/19 08:12:00;;;;;;;9.95;8.98;;;;;;;18.44;57.54;98208.61;1720510;83;21103;-70
2021/05/19 08:14:27;;;;;;;9.65;8.70;;;;;;;18.35;57.33;98201.16;1716296;82;21113;-70
2021/05/19 08:16:53;;;;;;;10.23;9.25;;;;;;;18.31;57.14;98198.44;1702004;83;21599;-70
2021/05/19 08:19:20;;;;;;;11.53;10.43;;;;;;;18.04;57.08;98162.91;1702253;84;21530;-70
2021/05/19 08:21:46;;;;;;;12.35;11.10;;;;;;;18.06;57.48;98197.56;1702005;83;21607;-70
2021/05/19 08:24:11;;;;;;;12.00;10.93;;;;;;;17.75;57.95;98202.56;1702036;83;21166;-70
2021/05/19 08:26:37;;;;;;;12.73;11.43;;;;;;;17.78;58.29;98204.24;1702226;83;21764;-69
2021/05/19 08:29:04;;;;;;;13.18;12.03;;;;;;;17.69;58.40;98198.91;1702190;83;21069;-70
2021/05/19 08:31:30;;;;;;;13.22;12.03;;;;;;;17.45;58.67;98201.47;1702152;83;21176;-70
2021/05/19 08:33:56;;;;;;;12.73;11.53;;;;;;;17.06;59.72;98191.48;1701933;83;21567;-69
2021/05/19 08:36:26;;;;;;;11.10;10.00;;;;;;;16.86;60.03;98193.26;1702198;83;21061;-70
2021/05/19 08:38:53;;;;;;;10.32;9.38;;;;;;;16.65;60.29;98161.16;1713101;83;21059;-69
2021/05/19 08:41:19;;;;;;;10.40;9.50;;;;;;;16.48;60.40;98177.08;1689878;83;21110;-69
2021/05/19 08:43:44;;;;;;;11.05;9.98;;;;;;;16.53;60.52;98179.82;1713912;83;21603;-70
2021/05/19 08:46:10;;;;;;;10.72;9.40;;;;;;;16.61;60.39;98183.81;1713927;83;21118;-70
2021/05/19 08:48:37;;;;;;;11.15;9.93;;;;;;;16.64;60.36;98197.41;1713898;83;21054;-70
2021/05/19 08:51:03;;;;;;;12.30;10.18;;;;;;;16.76;60.10;98199.89;1713853;83;21103;-70
2021/05/19 08:53:29;;;;;;;10.50;9.50;;;;;;;16.69;60.21;98189.80;1714250;83;21512;-69
2021/05/19 08:55:55;;;;;;;11.28;10.28;;;;;;;16.76;60.43;98195.77;1714197;83;21321;-69
2021/05/19 08:58:21;;;;;;;11.43;10.43;;;;;;;16.79;60.32;98199.02;1714301;83;21445;-69
2021/05/19 09:00:47;;;;;;;9.70;8.90;;;;;;;16.94;60.44;98194.34;1713903;83;21536;-69
2021/05/19 09:03:14;;;;;;;9.95;9.05;;;;;;;17.29;59.78;98194.89;1713941;83;21529;-69
2021/05/19 09:05:41;;;;;;;9.78;8.85;;;;;;;17.19;59.07;98185.13;1714020;83;21054;-70
2021/05/19 09:08:10;;;;;;;8.98;8.08;;;;;;;17.05;60.10;98195.45;1713914;83;21035;-69
2021/05/19 09:10:43;;;;;;;7.65;6.85;;;;;;;17.14;60.00;98189.84;1724375;83;21031;-70
2021/05/19 09:13:32;;;;;;;6.25;5.60;;;;;;;17.47;59.88;98198.28;1724573;83;21161;-70
2021/05/19 09:15:58;;;;;;;6.62;5.97;;;;;;;18.06;58.17;98201.68;1724246;82;21125;-70
2021/05/19 09:18:24;;;;;;;7.00;6.30;;;;;;;18.17;57.01;98195.09;1713875;83;21067;-70
2021/05/19 09:20:51;;;;;;;6.12;5.15;;;;;;;18.39;57.04;98191.39;1689456;83;21130;-70
2021/05/19 09:23:19;;;;;;;6.03;5.33;;;;;;;18.60;55.61;98197.88;1714036;83;21067;-70
2021/05/19 09:25:44;;;;;;;6.78;6.08;;;;;;;18.56;55.34;98193.93;1689737;83;21075;-70
2021/05/19 09:28:12;;;;;;;9.83;8.85;;;;;;;18.39;55.20;98203.77;1713817;83;21583;-70
2021/05/19 09:30:42;;;;;;;11.30;10.25;;;;;;;17.99;55.91;98220.45;1709906;83;21258;-70
2021/05/19 09:33:16;;;;;;;11.05;10.05;;;;;;;17.49;57.42;98217.20;1713612;83;21592;-70
2021/05/19 09:35:45;;;;;;;11.45;10.38;;;;;;;17.18;58.54;98214.52;1714050;83;21086;-70
2021/05/19 09:38:27;;;;;;;12.07;11.08;;;;;;;16.90;59.06;98215.05;1713533;83;21051;-71
2021/05/19 09:41:26;;;;;;;11.53;10.43;;;;;;;16.76;59.79;98204.00;1689909;83;21063;-70
2021/05/19 09:43:54;;;;;;;11.65;10.58;;;;;;;16.72;60.13;98212.20;1714226;83;21055;-70
2021/05/19 09:46:26;;;;;;;12.00;10.90;;;;;;;16.82;59.96;98210.45;1697943;83;21174;-71
2021/05/19 09:49:14;;;;;;;11.48;10.38;;;;;;;16.97;59.72;98221.64;1694158;84;21079;-69
2021/05/19 09:51:41;;;;;;;12.58;11.30;;;;;;;17.20;59.67;98218.20;1713888;83;21075;-70
2021/05/19 09:54:10;;;;;;;12.10;11.00;;;;;;;17.38;59.23;98196.88;1714162;83;22250;-72
2021/05/19 09:56:45;;;;;;;11.45;10.32;;;;;;;17.43;59.13;98208.05;1709747;83;21628;-70
2021/05/19 09:59:22;;;;;;;10.88;9.88;;;;;;;17.34;59.75;98210.75;1699051;83;21070;-70
2021/05/19 10:01:49;;;;;;;9.78;8.68;;;;;;;17.39;59.70;98208.03;1714153;83;21637;-70
2021/05/19 10:04:15;;;;;;;9.13;8.28;;;;;;;17.56;59.02;98206.52;1713942;83;21063;-70
2021/05/19 10:06:41;;;;;;;8.75;8.00;;;;;;;17.87;58.10;98202.30;1713907;83;21143;-70
2021/05/19 10:09:07;;;;;;;8.93;8.03;;;;;;;18.33;57.61;98209.71;1714015;83;21034;-70
2021/05/19 10:11:33;;;;;;;8.70;7.90;;;;;;;18.82;57.21;98201.80;1713928;83;21111;-70
2021/05/19 10:13:58;;;;;;;7.65;6.95;;;;;;;19.25;56.60;98203.27;1713769;82;21035;-70
2021/05/19 10:16:24;;;;;;;6.75;6.05;;;;;;;19.32;55.36;98202.80;1713893;83;21075;-70
2021/05/19 10:18:52;;;;;;;6.97;6.30;;;;;;;19.47;54.43;98211.86;1713954;83;21584;-69
2021/05/19 10:21:18;;;;;;;6.47;5.87;;;;;;;19.36;53.70;98181.34;1713837;83;21142;-70
2021/05/19 10:24:02;;;;;;;6.25;5.65;;;;;;;19.07;54.06;98200.64;1713927;83;21122;-70
2021/05/19 10:26:22;;;;;;;6.65;6.00;;;;;;;18.94;54.34;98204.22;1712724;83;21150;-70
2021/05/19 10:28:47;;;;;;;6.25;5.28;;;;;;;19.00;54.13;98206.47;1714088;83;21059;-70
2021/05/19 10:31:21;;;;;;;6.15;5.55;;;;;;;18.82;53.99;98199.05;1713785;83;21245;-70
2021/05/19 10:33:47;;;;;;;7.03;6.33;;;;;;;18.61;54.26;98202.17;1720179;82;21090;-70
2021/05/19 10:36:29;;;;;;;6.40;5.80;;;;;;;18.36;54.84;98216.45;1696902;84;21071;-71
2021/05/19 10:39:11;;;;;;;6.60;5.90;;;;;;;18.28;55.34;98200.70;1696795;84;21090;-70
2021/05/19 10:41:37;;;;;;;6.75;5.78;;;;;;;18.22;55.94;98205.30;1697144;84;21130;-70
2021/05/19 10:44:24;;;;;;;6.40;5.50;;;;;;;18.40;55.75;98201.16;1697517;84;21047;-70
2021/05/19 10:50:00;;;;;;;6.17;5.55;;;;;;;18.53;55.07;98208.61;1697228;84;21539;-70
2021/05/19 10:52:38;;;;;;;6.47;5.87;;;;;;;18.57;54.98;98202.31;1694153;84;21087;-70
2021/05/19 10:57:54;;;;;;;6.55;5.87;;;;;;;18.76;54.42;98204.42;1696098;84;21623;-70
2021/05/19 11:00:25;;;;;;;6.47;5.75;;;;;;;19.19;54.07;98205.77;1697421;84;21098;-69
2021/05/19 11:02:54;;;;;;;6.17;5.58;;;;;;;19.41;53.49;98204.10;1697626;84;21635;-70
2021/05/19 11:05:21;;;;;;;6.33;5.72;;;;;;;19.46;52.90;98199.33;1697174;84;21658;-71
2021/05/19 11:08:10;;;;;;;7.15;5.87;;;;;;;19.41;52.28;98210.36;1697247;84;21679;-70
2021/05/19 11:10:41;;;;;;;6.10;5.50;;;;;;;19.28;52.08;98205.70;1657266;86;21045;-70
2021/05/19 11:13:07;;;;;;;6.28;5.67;;;;;;;19.35;52.62;98211.48;1708392;83;21098;-70
2021/05/19 11:15:52;;;;;;;6.12;5.53;;;;;;;19.24;52.20;98229.28;1720938;83;21181;-70
2021/05/19 11:21:05;;;;;;;6.92;6.22;;;;;;;18.74;53.56;98209.64;1687254;85;21135;-70
2021/05/19 11:23:31;;;;;;;6.83;6.17;;;;;;;18.68;54.08;98208.70;1692701;84;21124;-70
2021/05/19 11:26:14;;;;;;;6.70;6.00;;;;;;;18.76;54.42;98207.17;1714907;83;21061;-70
2021/05/19 11:28:41;;;;;;;6.15;5.55;;;;;;;19.05;54.51;98215.47;1708977;83;21076;-70
2021/05/19 11:31:12;;;;;;;6.28;5.67;;;;;;;18.94;53.95;98216.59;1710364;83;21126;-71
2021/05/19 11:33:58;;;;;;;5.80;5.30;;;;;;;18.92;54.46;98217.05;1715214;83;21122;-71
2021/05/19 11:36:31;;;;;;;4.05;3.62;;;;;;;18.99;53.62;98212.59;1710169;83;21442;-71
2021/05/19 11:38:59;;;;;;;4.40;3.80;;;;;;;18.87;53.09;98215.55;1715770;83;21075;-70